Time;durP1;ratioP1;P1;durP2;ratioP2;P2;SDS_P1;SDS_P2;PMS_P1;PMS_P2;Temp;Humidity;BMP_temperature;BMP_pressure;BME280_temperature;BME280_humidity;BME280_pressure;Samples;Min_cycle;Max_cycle;Signal;HPM_P1;HPM_P2
2022/07/12 00:01:00;;;;;;;3.53;1.45;;;;;;;28.69;45.88;97187.41;5093595;28;20062;-26
2022/07/12 00:03:26;;;;;;;4.00;1.55;;;;;;;28.73;45.75;97193.44;5093613;28;20039;-26
2022/07/12 00:05:51;;;;;;;2.88;1.33;;;;;;;28.73;45.40;97193.44;5087968;28;20098;-26
2022/07/12 00:08:17;;;;;;;1.63;1.40;;;;;;;28.77;45.11;97185.53;5074436;28;20041;-26
2022/07/12 00:10:42;;;;;;;2.47;1.50;;;;;;;28.74;45.29;97189.38;5078001;28;20038;-26
2022/07/12 00:13:08;;;;;;;1.75;1.50;;;;;;;28.69;45.23;97190.19;5093581;28;20115;-26
2022/07/12 00:15:33;;;;;;;2.25;1.30;;;;;;;28.74;45.12;97191.41;5093171;28;20028;-26
2022/07/12 00:17:59;;;;;;;2.70;1.38;;;;;;;28.74;45.21;97185.81;5093263;28;20111;-26
2022/07/12 00:20:24;;;;;;;1.95;1.30;;;;;;;28.69;45.56;97189.44;5093095;28;20042;-26
2022/07/12 00:22:50;;;;;;;1.45;1.33;;;;;;;28.68;45.92;97194.28;5088359;28;20021;-26
2022/07/12 00:25:19;;;;;;;2.55;1.42;;;;;;;28.64;45.29;97188.25;5072931;28;20470;-26
2022/07/12 00:27:44;;;;;;;2.45;1.48;;;;;;;28.71;45.65;97192.47;5072807;28;20425;-26
2022/07/12 00:30:10;;;;;;;1.92;1.30;;;;;;;28.63;45.54;97189.53;5072642;28;20082;-26
2022/07/12 00:32:36;;;;;;;2.33;1.60;;;;;;;28.65;45.34;97200.94;5072716;28;20842;-26
2022/07/12 00:35:02;;;;;;;1.70;1.52;;;;;;;28.65;45.69;97200.94;5072669;28;20032;-26
2022/07/12 00:37:28;;;;;;;2.70;1.75;;;;;;;28.69;46.10;97184.59;5077289;28;20492;-26
2022/07/12 00:39:54;;;;;;;1.45;1.30;;;;;;;28.64;45.65;97188.25;5073415;28;20029;-26
2022/07/12 00:42:19;;;;;;;2.80;1.85;;;;;;;28.67;45.61;97190.00;5074527;28;20028;-26
2022/07/12 00:44:45;;;;;;;1.75;1.38;;;;;;;28.58;45.73;97188.31;5074635;28;20035;-26
2022/07/12 00:47:37;;;;;;;3.13;1.73;;;;;;;28.72;46.26;97183.56;5074416;28;20031;-26
2022/07/12 00:50:11;;;;;;;2.15;1.90;;;;;;;28.57;45.97;97186.06;5074187;28;20044;-26
2022/07/12 00:52:40;;;;;;;2.05;1.85;;;;;;;28.61;45.58;97186.50;5074472;28;20024;-26
2022/07/12 00:55:07;;;;;;;2.50;1.98;;;;;;;28.56;46.62;97181.78;5074418;28;20186;-26
2022/07/12 00:57:34;;;;;;;2.40;1.92;;;;;;;28.66;45.84;97185.69;5073987;28;20024;-26
2022/07/12 01:00:01;;;;;;;2.45;2.10;;;;;;;28.60;46.25;97185.00;5074194;28;20025;-26
2022/07/12 01:02:28;;;;;;;2.38;2.03;;;;;;;28.67;46.06;97187.19;5074152;28;20082;-26
2022/07/12 01:04:55;;;;;;;2.60;2.40;;;;;;;28.62;47.09;97190.81;5073990;28;20024;-26
2022/07/12 01:07:21;;;;;;;2.28;2.08;;;;;;;28.62;46.71;97188.03;5073814;28;20044;-26
2022/07/12 01:09:46;;;;;;;2.58;2.17;;;;;;;28.46;46.90;97183.44;5073972;28;20029;-26
2022/07/12 01:12:12;;;;;;;2.20;2.00;;;;;;;28.55;46.21;97180.28;5074075;28;20016;-26
2022/07/12 01:14:40;;;;;;;2.75;2.10;;;;;;;28.56;46.07;97176.19;5073772;28;20097;-26
2022/07/12 01:17:07;;;;;;;2.90;2.20;;;;;;;28.64;46.77;97185.47;5073958;28;20029;-26
2022/07/12 01:19:32;;;;;;;2.65;2.17;;;;;;;28.61;46.02;97180.94;5073815;28;20048;-26
2022/07/12 01:22:01;;;;;;;2.75;1.90;;;;;;;28.61;46.06;97186.50;5073825;28;20056;-26
2022/07/12 01:24:27;;;;;;;3.17;2.00;;;;;;;28.57;46.19;97172.09;5073824;28;20103;-26
2022/07/12 01:26:53;;;;;;;2.95;2.30;;;;;;;28.53;46.60;97178.00;5073557;28;20123;-26
2022/07/12 01:29:20;;;;;;;3.30;2.10;;;;;;;28.62;46.16;97170.53;5073900;28;20078;-26
2022/07/12 01:31:46;;;;;;;4.15;2.10;;;;;;;28.70;46.09;97163.78;5073647;28;20087;-26
2022/07/12 01:34:11;;;;;;;2.90;2.00;;;;;;;28.64;46.57;97181.91;5073843;28;20428;-26
2022/07/12 01:36:38;;;;;;;2.58;1.88;;;;;;;28.63;46.79;97178.38;5073722;28;20091;-26
2022/07/12 01:39:04;;;;;;;3.45;2.10;;;;;;;28.55;46.05;97186.59;5073709;28;20028;-26
2022/07/12 01:41:31;;;;;;;2.38;2.08;;;;;;;28.56;45.99;97176.19;5072457;28;20496;-26
2022/07/12 01:43:57;;;;;;;2.25;1.88;;;;;;;28.62;46.26;97185.22;5073448;28;20027;-26
2022/07/12 01:46:23;;;;;;;3.58;2.30;;;;;;;28.59;46.38;97181.47;5073482;28;20028;-25
2022/07/12 01:48:48;;;;;;;2.38;1.73;;;;;;;28.65;45.99;97181.38;5073393;28;20013;-26
2022/07/12 01:51:14;;;;;;;3.13;2.00;;;;;;;28.68;45.68;97188.72;5073637;28;20107;-26
2022/07/12 01:53:39;;;;;;;3.95;1.75;;;;;;;28.62;46.59;97188.03;5073347;28;20386;-26
2022/07/12 01:56:05;;;;;;;2.42;1.55;;;;;;;28.54;45.89;97181.56;5073487;28;20024;-26
2022/07/12 01:58:31;;;;;;;3.10;1.85;;;;;;;28.57;46.10;97178.44;5073154;28;20439;-26
2022/07/12 02:00:57;;;;;;;3.10;1.73;;;;;;;28.49;45.97;97177.56;5073323;28;20024;-26
2022/07/12 02:03:23;;;;;;;2.47;2.28;;;;;;;28.54;45.60;97184.34;5073595;28;20064;-26
2022/07/12 02:05:49;;;;;;;1.90;1.63;;;;;;;28.65;45.99;97177.84;5072893;28;20028;-26
2022/07/12 02:08:14;;;;;;;1.60;1.50;;;;;;;28.53;45.93;97188.41;5073133;28;20045;-26
2022/07/12 02:10:41;;;;;;;2.20;1.83;;;;;;;28.52;46.19;97182.09;5073351;28;20473;-26
2022/07/12 02:13:06;;;;;;;1.88;1.67;;;;;;;28.46;46.00;97177.84;5073289;28;20028;-26
2022/07/12 02:15:32;;;;;;;2.25;1.83;;;;;;;28.54;45.83;97181.56;5073120;28;20486;-26
2022/07/12 02:17:58;;;;;;;2.50;1.75;;;;;;;28.70;45.67;97183.31;5073293;28;20021;-26
2022/07/12 02:20:24;;;;;;;2.42;1.85;;;;;;;28.60;45.60;97182.97;5073110;28;20020;-26
2022/07/12 02:22:49;;;;;;;2.85;1.67;;;;;;;28.62;45.85;97184.47;5073068;28;20499;-26
2022/07/12 02:25:15;;;;;;;2.65;1.80;;;;;;;28.63;45.49;97181.16;5073222;28;20052;-26
2022/07/12 02:27:41;;;;;;;2.20;2.00;;;;;;;28.62;46.07;97179.66;5073245;28;20082;-26
2022/07/12 02:30:07;;;;;;;2.83;1.92;;;;;;;28.68;46.03;97180.34;5073253;28;20053;-26
2022/07/12 02:32:33;;;;;;;3.47;2.00;;;;;;;28.69;45.70;97178.28;5072830;28;20032;-26
2022/07/12 02:34:59;;;;;;;2.95;2.13;;;;;;;28.65;45.72;97177.84;5073029;28;20028;-26
2022/07/12 02:37:25;;;;;;;3.22;1.92;;;;;;;28.65;46.41;97173.03;5074254;28;20027;-26
2022/07/12 02:39:51;;;;;;;1.95;1.75;;;;;;;28.65;45.67;97177.84;5090011;28;20016;-26
2022/07/12 02:42:17;;;;;;;2.55;1.70;;;;;;;28.68;45.75;97176.78;5079920;28;20074;-26
2022/07/12 02:44:42;;;;;;;2.80;1.83;;;;;;;28.68;45.55;97171.22;5072931;28;20517;-26
2022/07/12 02:47:08;;;;;;;2.28;1.95;;;;;;;28.64;45.66;97170.75;5073029;28;20052;-26
2022/07/12 02:49:33;;;;;;;2.80;2.10;;;;;;;28.67;45.38;97164.88;5073250;28;20458;-26
2022/07/12 02:51:59;;;;;;;3.80;2.00;;;;;;;28.67;45.68;97158.53;5072710;28;20021;-26
2022/07/12 02:54:24;;;;;;;2.40;1.80;;;;;;;28.69;45.25;97162.28;5072830;28;20055;-26
2022/07/12 02:56:50;;;;;;;2.50;2.13;;;;;;;28.70;45.00;97161.00;5072796;28;20104;-26
2022/07/12 02:59:15;;;;;;;2.25;1.90;;;;;;;28.67;45.10;97159.28;5072580;28;20020;-26
2022/07/12 03:01:41;;;;;;;3.53;2.08;;;;;;;28.65;44.72;97166.69;5072832;28;20056;-26
2022/07/12 03:04:06;;;;;;;2.15;1.98;;;;;;;28.64;45.04;97165.94;5072619;28;20033;-26
2022/07/12 03:06:32;;;;;;;3.65;2.10;;;;;;;28.63;45.21;97164.41;5072731;28;20032;-26
2022/07/12 03:08:57;;;;;;;4.15;2.47;;;;;;;28.64;44.69;97165.16;5072457;28;20079;-26
2022/07/12 03:11:23;;;;;;;3.67;2.28;;;;;;;28.67;45.04;97158.53;5072438;28;20024;-26
2022/07/12 03:13:49;;;;;;;3.33;2.42;;;;;;;28.63;44.76;97160.88;5072678;28;20377;-26
2022/07/12 03:16:14;;;;;;;4.00;2.90;;;;;;;28.62;44.55;97168.50;5072341;28;20024;-26
2022/07/12 03:18:41;;;;;;;3.92;3.05;;;;;;;28.62;44.72;97168.50;5075585;28;20163;-26
2022/07/12 03:21:07;;;;;;;4.80;2.95;;;;;;;28.62;44.45;97174.06;5076261;28;20075;-26
2022/07/12 03:23:33;;;;;;;4.80;2.60;;;;;;;28.65;44.45;97172.25;5075834;28;20021;-26
2022/07/12 03:25:58;;;;;;;4.85;2.80;;;;;;;28.64;44.59;97177.09;5076372;28;20039;-26
2022/07/12 03:28:25;;;;;;;4.63;2.90;;;;;;;28.59;44.57;97172.34;5075865;28;20471;-26
2022/07/12 03:30:51;;;;;;;3.88;3.03;;;;;;;28.63;44.69;97174.81;5075884;28;20025;-26
2022/07/12 03:33:16;;;;;;;5.13;3.38;;;;;;;28.64;44.50;97177.09;5076130;28;20031;-26
2022/07/12 03:35:42;;;;;;;7.00;3.10;;;;;;;28.64;44.21;97176.34;5074938;28;20031;-26
2022/07/12 03:38:07;;;;;;;5.65;3.47;;;;;;;28.60;45.06;97174.59;5075620;28;20354;-26
2022/07/12 03:40:34;;;;;;;5.05;2.80;;;;;;;28.61;44.80;97180.94;5075753;28;20021;-26
2022/07/12 03:43:00;;;;;;;4.85;3.20;;;;;;;28.55;45.11;97186.59;5074546;28;20024;-26
2022/07/12 03:45:26;;;;;;;3.10;2.80;;;;;;;28.57;44.89;97183.25;5075728;28;20032;-26
2022/07/12 03:47:51;;;;;;;4.80;3.22;;;;;;;28.57;44.58;97184.03;5075858;28;20020;-26
2022/07/12 03:50:17;;;;;;;4.22;3.00;;;;;;;28.57;45.06;97186.06;5075648;28;20438;-26
2022/07/12 03:52:43;;;;;;;4.63;3.00;;;;;;;28.59;44.65;97192.63;5075550;28;20486;-26
2022/07/12 03:55:10;;;;;;;3.45;2.72;;;;;;;28.54;44.74;97184.34;5075408;28;20060;-26
2022/07/12 03:57:36;;;;;;;4.80;2.75;;;;;;;28.52;44.75;97186.91;5075305;28;20389;-26
2022/07/12 04:00:13;;;;;;;3.45;2.45;;;;;;;28.56;44.72;97192.94;5075507;28;20488;-26
2022/07/12 04:02:42;;;;;;;3.05;2.75;;;;;;;28.55;44.53;97202.59;5075511;28;20571;-26
2022/07/12 04:05:09;;;;;;;3.65;2.83;;;;;;;28.55;44.60;97197.03;5075692;28;20020;-26
2022/07/12 04:07:36;;;;;;;3.42;2.72;;;;;;;28.56;44.03;97204.09;5074873;28;20049;-26
2022/07/12 04:10:02;;;;;;;3.25;2.47;;;;;;;28.51;44.55;97196.56;5075177;28;20041;-26
2022/07/12 04:12:28;;;;;;;2.70;2.50;;;;;;;28.52;43.92;97198.81;5075031;28;20054;-26
2022/07/12 04:14:53;;;;;;;4.30;2.22;;;;;;;28.55;43.88;97191.44;5075136;28;20417;-26
2022/07/12 04:17:19;;;;;;;4.35;2.22;;;;;;;28.52;43.89;97192.50;5075048;28;20028;-26
2022/07/12 04:19:44;;;;;;;2.78;2.25;;;;;;;28.52;43.58;97192.50;5074941;28;20021;-26
2022/07/12 04:22:10;;;;;;;4.07;2.28;;;;;;;28.48;43.89;97192.03;5075049;28;20028;-26
2022/07/12 04:24:35;;;;;;;2.80;2.30;;;;;;;28.53;43.88;97196.78;5075018;28;20028;-26
2022/07/12 04:27:01;;;;;;;3.55;2.22;;;;;;;28.47;43.71;97194.06;5074854;28;20024;-26
2022/07/12 04:29:26;;;;;;;2.65;2.00;;;;;;;28.52;43.52;97192.50;5074427;28;20111;-26
2022/07/12 04:31:52;;;;;;;3.35;2.22;;;;;;;28.51;43.81;97194.53;5074693;28;20025;-26
2022/07/12 04:34:17;;;;;;;2.80;2.10;;;;;;;28.50;43.95;97192.25;5075081;28;20044;-26
2022/07/12 04:36:47;;;;;;;3.05;2.30;;;;;;;28.50;43.77;97190.22;5074758;28;20127;-26
2022/07/12 04:39:13;;;;;;;3.65;1.95;;;;;;;28.47;43.61;97190.50;5074494;28;20025;-26
2022/07/12 04:41:39;;;;;;;3.30;2.22;;;;;;;28.52;43.59;97193.25;5074594;28;20097;-26
2022/07/12 04:44:08;;;;;;;2.90;2.60;;;;;;;28.53;43.56;97197.53;5074463;28;20485;-26
2022/07/12 04:46:33;;;;;;;4.00;2.38;;;;;;;28.53;43.36;97194.00;5074602;28;20040;-26
2022/07/12 04:49:00;;;;;;;7.40;2.42;;;;;;;28.50;43.62;97195.81;5074254;28;20378;-26
2022/07/12 04:51:25;;;;;;;8.02;2.45;;;;;;;28.49;43.90;97199.13;5077094;28;20020;-26
2022/07/12 04:53:51;;;;;;;3.55;2.30;;;;;;;28.51;43.79;97194.53;5082498;28;20050;-26
2022/07/12 04:56:16;;;;;;;2.80;2.13;;;;;;;28.44;44.23;97202.72;5082332;28;20386;-26
2022/07/12 04:58:42;;;;;;;4.13;2.28;;;;;;;28.51;43.71;97202.91;5087931;28;20016;-26
2022/07/12 05:01:07;;;;;;;4.57;2.45;;;;;;;28.50;43.88;97197.84;5094443;28;20020;-26
2022/07/12 05:03:34;;;;;;;5.22;2.55;;;;;;;28.48;43.99;97195.56;5094437;28;20030;-26
2022/07/12 05:06:00;;;;;;;5.20;2.40;;;;;;;28.48;43.71;97194.81;5094346;28;20050;-26
2022/07/12 05:08:25;;;;;;;3.13;2.20;;;;;;;28.47;44.00;97204.47;5094204;28;20429;-26
2022/07/12 05:10:50;;;;;;;4.28;2.00;;;;;;;28.48;43.96;97203.19;5094338;28;20474;-26
2022/07/12 05:13:16;;;;;;;4.70;2.30;;;;;;;28.48;44.14;97200.41;5094362;28;20016;-26
2022/07/12 05:15:42;;;;;;;2.67;1.98;;;;;;;28.49;43.90;97204.69;5094140;28;20020;-26
2022/07/12 05:18:07;;;;;;;3.35;2.47;;;;;;;28.47;44.19;97201.69;5094079;28;20024;-26
2022/07/12 05:20:33;;;;;;;3.92;2.30;;;;;;;28.47;44.13;97210.06;5093931;28;20024;-26
2022/07/12 05:22:58;;;;;;;3.28;2.60;;;;;;;28.46;44.23;97208.53;5091668;28;20028;-26
2022/07/12 05:25:24;;;;;;;2.53;2.28;;;;;;;28.49;43.90;97224.22;5093107;28;20098;-26
2022/07/12 05:27:49;;;;;;;3.28;1.90;;;;;;;28.47;44.18;97221.22;5093644;28;20031;-27
2022/07/12 05:30:15;;;;;;;2.97;2.20;;;;;;;28.46;44.16;97216.91;5093846;28;20359;-26
2022/07/12 05:32:40;;;;;;;3.13;2.10;;;;;;;28.41;44.55;97228.91;5093702;28;20031;-26
2022/07/12 05:35:07;;;;;;;2.67;1.95;;;;;;;28.41;44.40;97214.97;5093870;28;20462;-26
2022/07/12 05:37:32;;;;;;;3.78;1.90;;;;;;;28.46;44.11;97226.03;5093488;28;20117;-26
2022/07/12 05:39:58;;;;;;;3.03;2.10;;;;;;;28.37;44.50;97225.66;5093200;28;20041;-26
2022/07/12 05:42:23;;;;;;;3.33;1.88;;;;;;;28.42;44.49;97220.03;5093616;28;20085;-26
2022/07/12 05:44:49;;;;;;;3.00;1.80;;;;;;;28.40;44.51;97230.19;5090379;28;20028;-24
2022/07/12 05:47:14;;;;;;;4.72;2.00;;;;;;;28.43;44.38;97234.72;5091709;28;20028;-26
2022/07/12 05:49:40;;;;;;;3.15;1.58;;;;;;;28.35;44.40;97236.59;5091591;28;20024;-26
2022/07/12 05:54:50;;;;;;;2.63;1.98;;;;;;;28.32;44.20;97232.81;5091849;28;20023;-26
2022/07/12 05:57:16;;;;;;;4.30;1.98;;;;;;;28.31;44.71;97228.53;5075886;28;20029;-26
2022/07/12 05:59:42;;;;;;;2.35;2.15;;;;;;;28.33;44.51;97236.34;5071777;28;20036;-26
2022/07/12 06:02:08;;;;;;;2.72;1.80;;;;;;;28.38;44.53;97241.13;5074946;28;20421;-26
2022/07/12 06:04:33;;;;;;;2.22;1.70;;;;;;;28.34;44.59;97237.88;5085120;28;20028;-26
2022/07/12 06:06:59;;;;;;;1.92;1.52;;;;;;;28.39;44.23;97235.00;5091196;28;20572;-26
2022/07/12 06:09:24;;;;;;;2.42;1.70;;;;;;;28.39;44.03;97248.22;5071405;28;20482;-26
2022/07/12 06:11:51;;;;;;;4.20;1.75;;;;;;;28.35;44.35;97242.91;5071168;28;20052;-26
2022/07/12 06:14:17;;;;;;;1.88;1.70;;;;;;;28.38;44.26;97238.34;5085439;28;20024;-26
2022/07/12 06:16:43;;;;;;;2.75;1.60;;;;;;;28.35;44.34;97237.34;5085155;28;20134;-26
2022/07/12 06:19:08;;;;;;;2.10;1.70;;;;;;;28.37;44.18;97245.19;5091170;28;20111;-26
2022/07/12 06:21:34;;;;;;;3.20;1.65;;;;;;;28.38;44.24;97244.66;5070909;28;20077;-26
2022/07/12 06:23:59;;;;;;;1.40;1.30;;;;;;;28.39;44.17;97246.19;5070984;28;20025;-26
2022/07/12 06:26:25;;;;;;;2.95;1.70;;;;;;;28.42;43.97;97247.16;5071023;28;20035;-26
2022/07/12 06:28:50;;;;;;;2.42;1.40;;;;;;;28.36;44.26;97247.22;5071241;28;20020;-26
2022/07/12 06:31:15;;;;;;;3.40;1.73;;;;;;;28.37;44.35;97242.41;5071218;28;20036;-26
2022/07/12 06:33:41;;;;;;;1.75;1.48;;;;;;;28.38;43.69;97249.50;5071070;28;20021;-26
2022/07/12 06:36:06;;;;;;;3.60;1.52;;;;;;;28.29;44.46;97245.03;5071040;28;20526;-26
2022/07/12 06:38:32;;;;;;;3.40;1.40;;;;;;;28.26;44.41;97243.28;5070748;28;20413;-26
2022/07/12 06:40:57;;;;;;;2.80;1.38;;;;;;;28.31;44.00;97244.53;5069702;28;20044;-26
2022/07/12 06:43:23;;;;;;;2.13;1.42;;;;;;;28.26;44.38;97248.88;5071011;28;20077;-26
2022/07/12 06:45:49;;;;;;;5.25;1.40;;;;;;;28.34;44.07;97254.59;5070849;28;20377;-26
2022/07/12 06:48:14;;;;;;;2.13;1.45;;;;;;;28.35;43.86;97256.88;5070965;28;20038;-26
2022/07/12 06:50:40;;;;;;;3.33;1.42;;;;;;;28.31;43.93;97266.84;5070785;28;20123;-26
2022/07/12 06:53:05;;;;;;;1.92;1.27;;;;;;;28.35;44.01;97267.28;5074921;28;20036;-26
2022/07/12 06:55:31;;;;;;;2.15;1.40;;;;;;;28.35;43.74;97270.81;5074443;28;20028;-26
2022/07/12 06:57:57;;;;;;;3.38;1.50;;;;;;;28.29;43.82;97264.56;5076391;28;20099;-26
2022/07/12 07:00:22;;;;;;;2.42;1.40;;;;;;;28.28;43.56;97271.41;5076514;28;20024;-26
2022/07/12 07:02:48;;;;;;;4.32;1.50;;;;;;;28.31;44.10;97275.19;5076526;28;20028;-26
2022/07/12 07:05:15;;;;;;;3.03;1.70;;;;;;;28.29;43.95;97289.66;5075917;28;20387;-26
2022/07/12 07:07:41;;;;;;;3.20;1.60;;;;;;;28.28;43.95;97281.81;5075513;28;20525;-26
2022/07/12 07:10:06;;;;;;;3.05;1.25;;;;;;;28.34;43.82;97277.69;5076637;28;20037;-26
2022/07/12 07:12:33;;;;;;;2.10;1.48;;;;;;;28.34;43.90;97282.50;5092713;28;20027;-26
2022/07/12 07:14:58;;;;;;;9.00;2.83;;;;;;;28.34;43.74;97283.25;5088853;28;20032;-26
2022/07/12 07:17:24;;;;;;;35.13;6.68;;;;;;;28.34;44.01;97280.47;5095530;28;20035;-26
2022/07/12 07:19:50;;;;;;;48.17;8.27;;;;;;;28.35;43.76;97284.00;5077988;28;20032;-26
2022/07/12 07:22:15;;;;;;;35.97;7.13;;;;;;;28.36;43.88;97279.94;5096372;28;20035;-26
2022/07/12 07:24:41;;;;;;;30.08;5.30;;;;;;;28.35;43.57;97278.44;5092163;28;20016;-26
2022/07/12 07:27:07;;;;;;;40.45;7.30;;;;;;;28.34;43.46;97274.13;5097038;28;20059;-26
2022/07/12 07:32:17;;;;;;;32.00;5.50;;;;;;;28.32;43.77;97285.81;5076343;28;20043;-26
2022/07/12 07:34:43;;;;;;;36.47;5.82;;;;;;;28.30;43.78;97282.81;5076232;28;20024;-26
2022/07/12 07:37:09;;;;;;;32.95;5.78;;;;;;;28.20;43.61;97279.59;5075939;28;20096;-26
2022/07/12 07:39:34;;;;;;;26.73;5.50;;;;;;;28.20;43.28;97278.84;5075871;28;20103;-26
2022/07/12 07:42:00;;;;;;;26.65;5.32;;;;;;;28.08;43.75;97277.44;5075695;28;20028;-26
2022/07/12 07:44:26;;;;;;;16.80;4.80;;;;;;;28.13;43.46;97285.00;5075946;28;20028;-26
2022/07/12 07:46:51;;;;;;;18.70;3.28;;;;;;;27.12;45.04;97285.13;5075694;28;20363;-29
2022/07/12 07:49:17;;;;;;;25.10;3.38;;;;;;;27.49;43.77;97288.13;5075527;28;20103;-29
2022/07/12 07:51:42;;;;;;;17.67;3.47;;;;;;;27.80;43.19;97286.88;5075738;28;20060;-29
2022/07/12 07:54:08;;;;;;;12.70;3.53;;;;;;;27.95;42.47;97283.66;5075598;28;20025;-29
2022/07/12 07:56:33;;;;;;;18.30;3.55;;;;;;;27.95;42.69;97292.03;5075783;28;20027;-29
2022/07/12 07:58:59;;;;;;;11.18;2.53;;;;;;;27.95;42.23;97289.22;5076008;28;20025;-29
2022/07/12 08:01:42;;;;;;;8.18;2.20;;;;;;;27.82;41.64;97286.31;5075655;28;20027;-29
2022/07/12 08:04:18;;;;;;;9.70;2.50;;;;;;;27.86;41.59;97295.16;5074593;28;20056;-29
2022/07/12 08:06:44;;;;;;;13.05;2.63;;;;;;;27.91;41.62;97283.22;5073773;28;20078;-29
2022/07/12 08:09:10;;;;;;;9.15;2.38;;;;;;;27.94;40.90;97290.53;5075274;28;20037;-29
2022/07/12 08:11:35;;;;;;;8.43;2.30;;;;;;;27.91;40.39;97285.25;5075272;28;20524;-30
2022/07/12 08:14:03;;;;;;;14.38;2.80;;;;;;;27.92;41.02;97293.09;5075043;28;20020;-29
2022/07/12 08:16:30;;;;;;;10.98;2.60;;;;;;;27.81;41.15;97282.06;5075523;28;20020;-30
2022/07/12 08:18:55;;;;;;;7.35;2.17;;;;;;;27.81;40.49;97293.19;5075331;28;20021;-29
2022/07/12 08:21:21;;;;;;;7.20;1.90;;;;;;;27.84;40.60;97292.88;5075067;28;20024;-29
2022/07/12 08:23:46;;;;;;;7.43;1.88;;;;;;;27.94;40.42;97290.53;5075200;28;20024;-30
2022/07/12 08:26:12;;;;;;;6.10;1.73;;;;;;;27.91;40.28;97291.56;5075132;28;20028;-29
2022/07/12 08:28:37;;;;;;;8.75;2.10;;;;;;;27.88;40.83;97298.94;5074939;28;20024;-29
2022/07/12 08:31:03;;;;;;;5.65;1.60;;;;;;;27.89;40.91;97303.25;5075066;28;20039;-28
2022/07/12 08:33:29;;;;;;;6.00;2.10;;;;;;;27.99;40.81;97300.09;5075004;28;20033;-29
2022/07/12 08:35:54;;;;;;;8.90;2.17;;;;;;;27.94;40.33;97293.31;5074626;28;20025;-29
2022/07/12 08:38:20;;;;;;;7.20;2.28;;;;;;;28.00;40.43;97302.38;5083224;28;20028;-29
2022/07/12 08:40:45;;;;;;;4.80;1.75;;;;;;;28.01;39.96;97300.34;5094915;28;20031;-29
2022/07/12 08:43:11;;;;;;;4.28;1.50;;;;;;;27.84;40.06;97304.03;5094964;28;20081;-29
2022/07/12 08:45:36;;;;;;;7.60;2.35;;;;;;;27.91;39.84;97307.53;5094761;28;20385;-29
2022/07/12 08:48:02;;;;;;;5.55;1.67;;;;;;;27.98;39.95;97306.97;5094911;28;20020;-29
2022/07/12 08:50:28;;;;;;;6.47;2.17;;;;;;;27.96;39.97;97310.25;5095087;28;20024;-29
2022/07/12 08:52:55;;;;;;;4.13;1.55;;;;;;;27.99;39.94;97309.22;5094738;28;20043;-29
2022/07/12 08:55:25;;;;;;;6.97;1.60;;;;;;;27.88;39.65;97317.69;5090586;28;20032;-29
2022/07/12 08:57:56;;;;;;;5.30;2.05;;;;;;;27.95;39.88;97311.53;5069935;28;20451;-29
2022/07/12 09:00:22;;;;;;;5.55;1.63;;;;;;;27.93;39.50;97311.31;5072905;28;20103;-30
2022/07/12 09:02:55;;;;;;;3.08;1.67;;;;;;;27.95;39.38;97313.56;5073864;28;20116;-29
2022/07/12 09:05:23;;;;;;;5.07;1.50;;;;;;;27.93;38.98;97313.34;5074259;28;20027;-29
2022/07/12 09:07:49;;;;;;;4.85;1.30;;;;;;;27.95;39.27;97314.31;5073973;28;20052;-29
2022/07/12 09:10:16;;;;;;;1.77;1.40;;;;;;;27.98;39.15;97312.53;5074282;28;20584;-29
2022/07/12 09:12:42;;;;;;;4.07;1.70;;;;;;;27.98;39.57;97324.44;5074267;28;20386;-30
2022/07/12 09:15:15;;;;;;;3.80;1.58;;;;;;;27.99;39.35;97319.63;5073049;28;20016;-29
2022/07/12 09:18:12;;;;;;;3.85;1.45;;;;;;;27.98;39.18;97321.66;5072820;28;20386;-29
2022/07/12 09:20:40;;;;;;;4.35;1.60;;;;;;;27.99;38.94;97328.75;5073975;28;20016;-30
2022/07/12 09:23:11;;;;;;;3.08;1.58;;;;;;;28.03;39.24;97320.84;5074061;28;20066;-29
2022/07/12 09:25:38;;;;;;;5.30;1.50;;;;;;;27.92;39.68;97320.97;5073817;28;20025;-28
2022/07/12 09:28:06;;;;;;;5.40;1.30;;;;;;;27.98;38.87;97327.22;5073817;28;20059;-30
2022/07/12 09:30:31;;;;;;;2.38;1.30;;;;;;;27.85;38.33;97324.31;5073731;28;20413;-29
2022/07/12 09:36:06;;;;;;;3.00;1.30;;;;;;;27.85;38.57;97322.28;5073698;28;20105;-30
2022/07/12 09:38:33;;;;;;;4.60;1.40;;;;;;;27.94;38.87;97323.25;5073630;28;20021;-30
2022/07/12 09:40:59;;;;;;;2.25;1.23;;;;;;;27.92;38.61;97332.13;5073749;28;20024;-29
2022/07/12 09:43:26;;;;;;;3.22;1.48;;;;;;;27.92;38.60;97326.53;5073703;28;20047;-29
2022/07/12 09:45:52;;;;;;;3.35;1.48;;;;;;;27.93;38.05;97327.31;5073636;28;20161;-31
2022/07/12 09:48:20;;;;;;;2.97;1.50;;;;;;;27.99;38.48;97325.19;5072254;28;20382;-29
2022/07/12 09:50:48;;;;;;;3.40;1.15;;;;;;;27.86;37.27;97332.16;5073486;28;20029;-29
2022/07/12 09:53:20;;;;;;;3.95;1.35;;;;;;;27.96;37.90;97332.56;5073556;28;20385;-29
2022/07/12 09:55:51;;;;;;;3.60;1.25;;;;;;;27.74;37.00;97324.41;5073385;28;20104;-30
2022/07/12 09:58:23;;;;;;;2.38;1.27;;;;;;;27.89;37.84;97324.78;5073549;28;20024;-29
2022/07/12 10:00:51;;;;;;;1.65;1.20;;;;;;;27.92;37.85;97326.53;5073585;28;20498;-30
2022/07/12 10:03:22;;;;;;;2.60;1.20;;;;;;;27.80;36.90;97331.47;5073383;28;20024;-29
2022/07/12 10:05:51;;;;;;;2.28;1.20;;;;;;;27.52;37.86;97331.66;5073393;28;20024;-29
2022/07/12 10:08:18;;;;;;;1.40;0.95;;;;;;;27.67;37.27;97327.78;5073094;28;20044;-29
2022/07/12 10:10:44;;;;;;;2.00;1.00;;;;;;;27.75;36.37;97332.25;5073280;28;20033;-29
2022/07/12 10:13:10;;;;;;;1.73;1.10;;;;;;;27.75;36.68;97323.16;5073559;28;20031;-29
2022/07/12 10:15:37;;;;;;;3.35;1.42;;;;;;;27.93;36.71;97325.28;5073286;28;20028;-29
2022/07/12 10:18:04;;;;;;;2.55;0.90;;;;;;;27.95;37.43;97319.16;5073210;28;20107;-29
2022/07/12 10:20:29;;;;;;;1.98;0.98;;;;;;;27.85;37.15;97322.28;5073256;28;20036;-30
2022/07/12 10:23:15;;;;;;;2.55;1.13;;;;;;;27.88;35.81;97321.25;5071822;28;20085;-29
2022/07/12 10:25:41;;;;;;;6.07;1.35;;;;;;;27.81;36.53;97326.66;5073126;28;20025;-29
2022/07/12 10:28:06;;;;;;;7.60;1.65;;;;;;;27.88;35.81;97317.69;5077303;28;20150;-29
2022/07/12 10:30:44;;;;;;;5.35;1.33;;;;;;;27.89;36.36;97322.00;5076108;28;20082;-29
2022/07/12 10:33:21;;;;;;;6.03;1.40;;;;;;;27.94;36.99;97318.41;5077372;28;20085;-29
2022/07/12 10:36:01;;;;;;;2.75;1.13;;;;;;;27.99;36.80;97314.03;5077135;28;20033;-29
2022/07/12 10:38:26;;;;;;;3.60;0.90;;;;;;;28.00;36.54;97316.31;5077049;28;20478;-29
2022/07/12 10:40:53;;;;;;;3.42;1.20;;;;;;;27.95;36.18;97305.97;5076999;28;20040;-29
2022/07/12 10:46:25;;;;;;;1.95;1.10;;;;;;;27.61;36.85;97302.75;5077366;28;20066;-28
2022/07/12 10:48:51;;;;;;;3.65;1.27;;;;;;;27.70;37.43;97310.00;5076712;28;20040;-29
2022/07/12 10:51:20;;;;;;;3.08;1.20;;;;;;;27.46;37.74;97303.09;5075497;28;20021;-28
2022/07/12 10:53:48;;;;;;;1.30;0.88;;;;;;;27.48;36.97;97308.13;5076738;28;20027;-29
2022/07/12 10:56:22;;;;;;;1.55;1.13;;;;;;;27.75;35.78;97295.28;5076734;28;20035;-29
2022/07/12 10:58:59;;;;;;;1.80;1.00;;;;;;;27.87;35.75;97291.09;5076543;28;20017;-29
2022/07/12 11:01:27;;;;;;;2.92;1.20;;;;;;;27.97;36.04;97295.03;5076718;28;20028;-29
2022/07/12 11:03:55;;;;;;;1.65;0.90;;;;;;;28.04;35.64;97294.47;5076646;28;20128;-29
2022/07/12 11:06:25;;;;;;;2.88;1.13;;;;;;;28.01;35.87;97289.94;5076463;28;20024;-29
2022/07/12 11:09:00;;;;;;;1.98;1.13;;;;;;;28.03;35.92;97290.19;5076419;28;20044;-29
2022/07/12 11:11:31;;;;;;;1.13;1.00;;;;;;;28.03;36.08;97290.19;5076470;28;20028;-30
2022/07/12 11:13:58;;;;;;;2.42;1.05;;;;;;;27.99;36.01;97294.53;5076431;28;20027;-30
2022/07/12 11:16:24;;;;;;;2.10;1.15;;;;;;;27.94;36.05;97282.19;5076658;28;20383;-29
2022/07/12 11:18:51;;;;;;;3.33;1.17;;;;;;;28.02;35.63;97285.88;5076094;28;20024;-29
2022/07/12 11:21:17;;;;;;;1.30;1.00;;;;;;;28.08;35.67;97283.78;5076197;28;20025;-29
2022/07/12 11:23:43;;;;;;;2.13;1.10;;;;;;;28.10;35.26;97281.22;5076092;28;20103;-29
2022/07/12 11:26:11;;;;;;;3.17;1.30;;;;;;;28.06;35.68;97274.44;5076175;28;20158;-30
2022/07/12 11:28:41;;;;;;;2.88;1.02;;;;;;;28.02;35.37;97274.72;5076055;28;20021;-29
2022/07/12 11:31:12;;;;;;;2.03;0.85;;;;;;;27.99;35.51;97277.81;5076170;28;20020;-30
2022/07/12 11:33:40;;;;;;;3.33;1.48;;;;;;;28.06;35.26;97275.19;5075792;28;20029;-29
2022/07/12 11:36:10;;;;;;;1.58;1.00;;;;;;;28.08;35.42;97269.06;5076078;28;20052;-29
2022/07/12 11:38:38;;;;;;;3.50;1.10;;;;;;;28.09;35.47;97268.56;5074604;28;20068;-29
2022/07/12 11:41:05;;;;;;;2.10;0.95;;;;;;;28.15;35.45;97268.50;5075880;28;20033;-31